Saturday, January 20, 2018, 8:23 AM EST
Back to Local

KPTW, Pottstown Limerick Airport

Location: Royersford, PA, United States Lat: 40.233
Local Time: 8:23 AM EST (13:23 GMT) Lon: -75.55
Time Zone: US/Eastern Elev: 291 ft

Show me the last for .
Show Coded

Time T Td Feel RH Dir Speed Gust Alt SLP Vis Weather Sky Remarks
2018-01-20 07:54 40 23 34 50 210° 9 - 29.93 29.93 10 CLR None
2018-01-20 06:54 36 22 32 56 220° 5 - 29.93 29.93 10 CLR 6-hr Min Temp (7am): 23.0°F
6-hr Max Temp (7am): 37.9°F
2018-01-20 05:54 37 22 32 53 230° 6 - 29.92 29.92 10 CLR None
2018-01-20 04:54 32 20 26 60 220° 6 - 29.93 29.93 10 CLR None
2018-01-20 03:54 26 17 - 68 - Calm - 29.94 29.94 10 CLR None
2018-01-20 01:54 32 18 29 55 210° 3 - 29.96 29.96 9 CLR None
2018-01-20 00:54 33 18 29 53 200° 5 - 29.96 29.96 10 CLR 6-hr Min Temp (1am): 24.1°F
6-hr Max Temp (1am): 36.0°F
2018-01-19 23:54 26 17 - 68 - Calm - 29.98 29.98 9 CLR 24-hr Min Temp (12am): 10.9°F
24-hr Max Temp (12am): 39.9°F
2018-01-19 22:54 26 18 - 70 - Calm - 30.00 30.00 9 CLR None
2018-01-19 21:54 31 18 - 58 - Calm - 30.00 30.00 9 CLR None
2018-01-19 20:54 28 18 - 65 - Calm - 30.01 30.01 9 CLR None
2018-01-19 19:54 36 18 33 47 Variable 3 - 30.01 30.01 10 CLR None
2018-01-19 18:54 30 19 - 63 - Calm - 30.01 30.01 9 CLR 6-hr Min Temp (7pm): 30.0°F
6-hr Max Temp (7pm): 39.9°F
2018-01-19 17:54 38 19 33 46 230° 7 - 30.01 30.02 10 CLR None
2018-01-19 16:54 38 19 36 46 240° 3 - 30.01 30.01 9 CLR None
2018-01-19 15:54 39 18 33 42 260° 9 - 30.02 30.02 9 CLR None
2018-01-19 14:54 39 18 33 42 250° 8 - 30.01 30.01 8 CLR None
2018-01-19 13:54 37 17 34 43 Variable 3 - 30.03 30.03 8 CLR None
2018-01-19 12:54 36 16 30 43 250° 8 - 30.04 30.04 8 CLR 6-hr Min Temp (1pm): 12.0°F
6-hr Max Temp (1pm): 36.0°F
2018-01-19 11:54 35 17 29 47 270° 7 - 30.07 30.07 8 CLR None
2018-01-19 10:54 30 17 - 58 - Calm - 30.10 30.11 6 HZ CLR None
2018-01-19 09:54 24 16 - 70 - Calm - 30.11 30.12 5 HZ CLR None
2018-01-19 08:54 19 14 - 80 - Calm - 30.10 30.11 4 HZ CLR None

Support USWX by starting your Amazon purchase here.